createdAt,value
2017-10-12T00:00:57.645Z,16.31
2017-10-12T00:01:57.962Z,16.34
2017-10-12T00:02:57.613Z,16.38
2017-10-12T00:03:57.947Z,16.33
2017-10-12T00:04:57.642Z,16.33
2017-10-12T00:05:57.589Z,16.34
2017-10-12T00:06:57.561Z,16.3
2017-10-12T00:07:57.559Z,16.34
2017-10-12T00:08:57.869Z,16.37
2017-10-12T00:09:57.204Z,16.33
2017-10-12T00:10:57.512Z,16.26
2017-10-12T00:11:57.837Z,16.33
2017-10-12T00:12:57.839Z,16.27
2017-10-12T00:13:57.153Z,16.31
2017-10-12T00:14:57.456Z,16.34
2017-10-12T00:15:57.465Z,16.31
2017-10-12T00:16:57.435Z,16.31
2017-10-12T00:17:57.773Z,16.26
2017-10-12T00:18:57.070Z,16.37
2017-10-12T00:19:57.395Z,16.4
2017-10-12T00:20:58.327Z,16.38
2017-10-12T00:21:57.369Z,16.38
2017-10-12T00:22:57.357Z,16.31
2017-10-12T00:23:57.668Z,16.37
2017-10-12T00:24:56.995Z,16.3
2017-10-12T00:25:57.314Z,16.3
2017-10-12T00:26:56.966Z,16.26
2017-10-12T00:27:57.294Z,16.31
2017-10-12T00:28:57.283Z,16.27
2017-10-12T00:29:57.266Z,16.37
2017-10-12T00:30:57.247Z,16.33
2017-10-12T00:31:57.238Z,16.34
2017-10-12T00:32:57.224Z,16.35
2017-10-12T00:33:57.546Z,16.38
2017-10-12T00:34:57.194Z,16.35
2017-10-12T00:35:57.197Z,16.33
2017-10-12T00:36:57.500Z,16.33
2017-10-12T00:37:57.491Z,16.33
2017-10-12T00:38:57.477Z,16.4
2017-10-12T00:39:57.136Z,16.3
2017-10-12T00:40:57.113Z,16.35
2017-10-12T00:41:56.771Z,16.31
2017-10-12T00:42:57.427Z,16.35
2017-10-12T00:43:56.741Z,16.33
2017-10-12T00:44:57.401Z,16.3
2017-10-12T00:45:57.054Z,16.3
2017-10-12T00:46:57.380Z,16.34
2017-10-12T00:47:57.028Z,16.26
2017-10-12T00:48:57.344Z,16.3
2017-10-12T00:49:57.324Z,16.27
2017-10-12T00:50:57.315Z,16.16
2017-10-12T00:51:56.976Z,16.22
2017-10-12T00:52:56.958Z,16.11
2017-10-12T00:53:56.938Z,15.89
2017-10-12T00:54:57.277Z,15.82
2017-10-12T00:55:56.588Z,15.56
2017-10-12T00:56:57.247Z,15.48
2017-10-12T00:57:56.564Z,15.49
2017-10-12T00:58:56.875Z,15.31
2017-10-12T00:59:56.855Z,15.33
2017-10-12T01:00:56.846Z,15.28
2017-10-12T01:01:56.837Z,15.2
2017-10-12T01:02:56.821Z,15.15
2017-10-12T01:03:57.158Z,15.11
2017-10-12T01:04:56.460Z,15.08
2017-10-12T01:05:57.109Z,14.99
2017-10-12T01:06:56.766Z,15.03
2017-10-12T01:07:56.755Z,14.93
2017-10-12T01:08:57.072Z,14.99
2017-10-12T01:09:56.722Z,14.87
2017-10-12T01:10:56.709Z,14.8
2017-10-12T01:11:56.696Z,14.72
2017-10-12T01:12:57.016Z,14.8
2017-10-12T01:13:56.667Z,14.78
2017-10-12T01:14:56.650Z,14.72
2017-10-12T01:15:56.635Z,14.69
2017-10-12T01:16:56.956Z,14.68
2017-10-12T01:17:56.610Z,14.78
2017-10-12T01:18:56.942Z,14.67
2017-10-12T01:19:56.581Z,14.68
2017-10-12T01:20:56.901Z,14.71
2017-10-12T01:21:56.549Z,14.6
2017-10-12T01:22:56.208Z,14.68
2017-10-12T01:23:56.183Z,14.56
2017-10-12T01:24:56.502Z,14.53
2017-10-12T01:25:56.158Z,14.54
2017-10-12T01:26:56.477Z,14.52
2017-10-12T01:27:56.127Z,14.52
2017-10-12T01:28:56.792Z,14.47
2017-10-12T01:29:56.434Z,14.49
2017-10-12T01:30:56.419Z,14.44
2017-10-12T01:31:56.750Z,14.49
2017-10-12T01:32:56.726Z,14.43
2017-10-12T01:33:56.378Z,14.44
2017-10-12T01:34:56.359Z,14.5
2017-10-12T01:35:56.020Z,14.38
2017-10-12T01:36:56.673Z,14.43
2017-10-12T01:37:55.996Z,14.42
2017-10-12T01:38:56.637Z,14.42
2017-10-12T01:39:55.959Z,14.35
2017-10-12T01:40:56.287Z,14.37
2017-10-12T01:41:56.264Z,14.37
2017-10-12T01:42:56.583Z,14.34
2017-10-12T01:43:56.231Z,14.31
2017-10-12T01:44:56.231Z,14.34
2017-10-12T01:45:56.540Z,14.37
2017-10-12T01:46:56.184Z,14.29
2017-10-12T01:47:55.850Z,14.35
2017-10-12T01:48:56.159Z,14.32
2017-10-12T01:49:56.489Z,14.32
2017-10-12T01:50:56.465Z,14.27
2017-10-12T01:51:56.118Z,14.28
2017-10-12T01:52:56.126Z,14.31
2017-10-12T01:53:56.084Z,14.21
2017-10-12T01:54:56.074Z,14.21
2017-10-12T01:55:56.388Z,14.21
2017-10-12T01:56:56.373Z,14.31
2017-10-12T01:57:55.691Z,14.25
2017-10-12T01:58:55.672Z,14.24
2017-10-12T01:59:55.993Z,14.31
2017-10-12T02:00:56.312Z,14.27
2017-10-12T02:01:55.629Z,14.25
2017-10-12T02:02:55.986Z,14.2
2017-10-12T02:03:55.599Z,14.27
2017-10-12T02:04:56.261Z,14.28
2017-10-12T02:05:55.912Z,14.32
2017-10-12T02:06:55.558Z,14.29
2017-10-12T02:07:55.882Z,14.31
2017-10-12T02:08:55.528Z,14.21
2017-10-12T02:09:55.853Z,14.29
2017-10-12T02:10:55.832Z,14.31
2017-10-12T02:11:55.818Z,14.29
2017-10-12T02:12:56.139Z,14.21
2017-10-12T02:13:55.794Z,14.25
2017-10-12T02:14:55.777Z,14.25
2017-10-12T02:15:55.764Z,14.28
2017-10-12T02:16:55.745Z,14.25
2017-10-12T02:17:55.728Z,14.24
2017-10-12T02:18:55.715Z,14.27
2017-10-12T02:19:56.036Z,14.25
2017-10-12T02:20:55.681Z,14.28
2017-10-12T02:21:55.668Z,14.28
2017-10-12T02:22:56.006Z,14.28
2017-10-12T02:23:55.303Z,14.37
2017-10-12T02:24:55.630Z,14.25
2017-10-12T02:25:55.280Z,14.28
2017-10-12T02:26:55.926Z,14.34
2017-10-12T02:27:55.590Z,14.35
2017-10-12T02:28:55.569Z,14.34
2017-10-12T02:29:55.218Z,14.34
2017-10-12T02:30:55.873Z,14.37
2017-10-12T02:31:55.524Z,14.39
2017-10-12T02:32:55.844Z,14.42
2017-10-12T02:33:55.830Z,14.37
2017-10-12T02:34:55.147Z,14.47
2017-10-12T02:35:55.795Z,14.49
2017-10-12T02:36:55.453Z,14.5
2017-10-12T02:37:55.107Z,14.44
2017-10-12T02:38:55.758Z,14.47
2017-10-12T02:39:55.421Z,14.52
2017-10-12T02:40:55.723Z,14.38
2017-10-12T02:41:55.378Z,14.47
2017-10-12T02:42:55.366Z,14.57
2017-10-12T02:43:55.344Z,14.49
2017-10-12T02:44:55.332Z,14.49
2017-10-12T02:45:55.321Z,14.5
2017-10-12T02:46:55.309Z,14.57
2017-10-12T02:47:55.615Z,14.54
2017-10-12T02:48:55.271Z,14.56
2017-10-12T02:49:55.253Z,14.52
2017-10-12T02:50:55.587Z,14.54
2017-10-12T02:51:55.236Z,14.64
2017-10-12T02:52:55.547Z,14.68
2017-10-12T02:53:55.202Z,14.67
2017-10-12T02:54:55.190Z,14.62
2017-10-12T02:55:55.170Z,14.68
2017-10-12T02:56:54.818Z,14.71
2017-10-12T02:57:54.806Z,14.71
2017-10-12T02:58:55.463Z,14.65
2017-10-12T02:59:54.780Z,14.8
2017-10-12T03:00:55.093Z,14.78
2017-10-12T03:01:55.470Z,14.81
2017-10-12T03:02:55.406Z,14.81
2017-10-12T03:03:55.058Z,14.78
2017-10-12T03:04:54.706Z,14.78
2017-10-12T03:05:54.689Z,14.91
2017-10-12T03:06:54.671Z,14.88
2017-10-12T03:07:54.655Z,14.9
2017-10-12T03:08:54.981Z,14.93
2017-10-12T03:09:54.988Z,14.93
2017-10-12T03:10:54.618Z,14.95
2017-10-12T03:11:54.959Z,14.94
2017-10-12T03:12:54.917Z,14.93
2017-10-12T03:13:55.244Z,15.01
2017-10-12T03:14:54.897Z,14.93
2017-10-12T03:15:54.886Z,15.02
2017-10-12T03:16:54.530Z,15.03
2017-10-12T03:17:54.851Z,15.02
2017-10-12T03:18:55.164Z,15.01
2017-10-12T03:19:54.824Z,14.98
2017-10-12T03:20:54.805Z,14.99
2017-10-12T03:21:54.458Z,15.03
2017-10-12T03:22:54.446Z,15.01
2017-10-12T03:23:54.425Z,14.98
2017-10-12T03:24:55.076Z,14.98
2017-10-12T03:25:55.085Z,15.05
2017-10-12T03:26:54.722Z,15.03
2017-10-12T03:27:54.708Z,15.08
2017-10-12T03:28:55.027Z,15.06
2017-10-12T03:29:55.009Z,15.05
2017-10-12T03:30:55.007Z,15.08
2017-10-12T03:31:54.649Z,15.15
2017-10-12T03:32:54.971Z,15.09
2017-10-12T03:33:54.963Z,15.11
2017-10-12T03:34:54.937Z,15.12
2017-10-12T03:35:54.590Z,15.11
2017-10-12T03:36:54.913Z,15.08
2017-10-12T03:37:54.563Z,15.15
2017-10-12T03:38:54.886Z,15.12
2017-10-12T03:39:54.541Z,15.21
2017-10-12T03:40:54.523Z,15.12
2017-10-12T03:41:54.838Z,15.23
2017-10-12T03:42:54.824Z,15.19
2017-10-12T03:43:54.479Z,15.19
2017-10-12T03:44:54.468Z,15.21
2017-10-12T03:45:54.117Z,15.27
2017-10-12T03:46:54.768Z,15.19
2017-10-12T03:47:54.417Z,15.13
2017-10-12T03:48:54.070Z,15.09
2017-10-12T03:49:54.727Z,15.06
2017-10-12T03:50:54.719Z,15.02
2017-10-12T03:51:54.705Z,14.93
2017-10-12T03:52:54.351Z,14.87
2017-10-12T03:53:54.336Z,14.87
2017-10-12T03:54:54.650Z,14.84
2017-10-12T03:55:54.307Z,14.84
2017-10-12T03:56:54.635Z,14.84
2017-10-12T03:57:53.944Z,14.84
2017-10-12T03:58:54.596Z,14.81
2017-10-12T03:59:54.246Z,14.84
2017-10-12T04:00:54.573Z,14.81
2017-10-12T04:01:54.227Z,14.93
2017-10-12T04:02:54.545Z,14.87
2017-10-12T04:03:54.195Z,14.87
2017-10-12T04:04:54.181Z,14.88
2017-10-12T04:05:53.833Z,14.9
2017-10-12T04:06:54.483Z,14.93
2017-10-12T04:07:53.814Z,14.95
2017-10-12T04:08:54.139Z,14.87
2017-10-12T04:09:54.445Z,14.91
2017-10-12T04:10:54.434Z,14.8
2017-10-12T04:11:54.412Z,14.84
2017-10-12T04:12:54.067Z,14.87
2017-10-12T04:13:54.393Z,14.87
2017-10-12T04:14:54.370Z,14.91
2017-10-12T04:15:54.024Z,14.81
2017-10-12T04:16:54.344Z,14.84
2017-10-12T04:17:53.993Z,14.84
2017-10-12T04:18:53.976Z,14.9
2017-10-12T04:19:53.968Z,14.81
2017-10-12T04:20:53.952Z,14.88
2017-10-12T04:21:54.152Z,14.84
2017-10-12T04:22:53.589Z,14.88
2017-10-12T04:23:53.908Z,14.88
2017-10-12T04:24:54.229Z,14.8
2017-10-12T04:25:53.884Z,14.78
2017-10-12T04:26:54.198Z,14.78
2017-10-12T04:27:53.520Z,14.74
2017-10-12T04:28:53.847Z,14.72
2017-10-12T04:29:53.824Z,14.69
2017-10-12T04:30:53.813Z,14.67
2017-10-12T04:31:53.794Z,14.65
2017-10-12T04:32:53.797Z,14.67
2017-10-12T04:33:54.101Z,14.62
2017-10-12T04:34:54.087Z,14.6
2017-10-12T04:35:54.075Z,14.53
2017-10-12T04:36:54.075Z,14.52
2017-10-12T04:37:53.706Z,14.49
2017-10-12T04:38:53.700Z,14.49
2017-10-12T04:39:53.686Z,14.42
2017-10-12T04:40:53.665Z,14.43
2017-10-12T04:41:53.651Z,14.35
2017-10-12T04:42:53.977Z,14.34
2017-10-12T04:43:53.957Z,14.32
2017-10-12T04:44:53.948Z,14.39
2017-10-12T04:45:53.596Z,14.38
2017-10-12T04:46:53.917Z,14.43
2017-10-12T04:47:53.572Z,14.43
2017-10-12T04:48:53.564Z,14.37
2017-10-12T04:49:53.539Z,14.35
2017-10-12T04:50:53.867Z,14.31
2017-10-12T04:51:53.847Z,14.38
2017-10-12T04:52:53.168Z,14.29
2017-10-12T04:53:53.817Z,14.28
2017-10-12T04:54:53.798Z,14.29
2017-10-12T04:55:53.791Z,14.25
2017-10-12T04:56:53.770Z,14.27
2017-10-12T04:57:53.097Z,14.17
2017-10-12T04:58:53.746Z,14.24
2017-10-12T04:59:53.060Z,14.12
2017-10-12T05:00:53.378Z,14.09
2017-10-12T05:01:53.701Z,14.09
2017-10-12T05:02:53.352Z,14.1
2017-10-12T05:03:53.337Z,14.12
2017-10-12T05:04:53.659Z,14.02
2017-10-12T05:05:53.306Z,14.07
2017-10-12T05:06:52.959Z,14.01
2017-10-12T05:07:52.968Z,13.95
2017-10-12T05:08:52.932Z,13.98
2017-10-12T05:09:52.918Z,13.89
2017-10-12T05:10:53.234Z,13.91
2017-10-12T05:11:53.561Z,13.88
2017-10-12T05:12:53.541Z,13.92
2017-10-12T05:13:52.871Z,13.87
2017-10-12T05:14:53.507Z,13.89
2017-10-12T05:15:53.158Z,13.87
2017-10-12T05:16:52.816Z,13.87
2017-10-12T05:17:53.128Z,13.81
2017-10-12T05:18:52.777Z,13.81
2017-10-12T05:19:53.102Z,13.81
2017-10-12T05:20:53.089Z,13.8
2017-10-12T05:21:53.405Z,13.77
2017-10-12T05:22:53.051Z,13.76
2017-10-12T05:23:53.045Z,13.76
2017-10-12T05:24:53.358Z,13.91
2017-10-12T05:25:53.351Z,13.7
2017-10-12T05:26:53.001Z,13.76
2017-10-12T05:27:52.644Z,13.73
2017-10-12T05:28:52.961Z,13.69
2017-10-12T05:29:52.960Z,13.76
2017-10-12T05:30:52.601Z,13.77
2017-10-12T05:31:52.927Z,13.8
2017-10-12T05:32:52.906Z,13.79
2017-10-12T05:33:53.221Z,13.74
2017-10-12T05:34:52.874Z,13.76
2017-10-12T05:35:53.195Z,13.69
2017-10-12T05:36:52.845Z,13.63
2017-10-12T05:37:52.827Z,13.79
2017-10-12T05:38:53.155Z,13.71
2017-10-12T05:39:52.801Z,13.67
2017-10-12T05:40:52.790Z,13.65
2017-10-12T05:41:52.799Z,13.62
2017-10-12T05:42:52.751Z,13.67
2017-10-12T05:43:52.406Z,13.62
2017-10-12T05:44:52.758Z,13.62
2017-10-12T05:45:52.710Z,13.61
2017-10-12T05:46:53.033Z,13.62
2017-10-12T05:47:52.682Z,13.69
2017-10-12T05:48:52.663Z,13.56
2017-10-12T05:49:52.995Z,13.65
2017-10-12T05:50:52.635Z,13.62
2017-10-12T05:51:52.620Z,13.63
2017-10-12T05:52:52.604Z,13.58
2017-10-12T05:53:52.920Z,13.61
2017-10-12T05:54:52.574Z,13.65
2017-10-12T05:55:52.557Z,13.69
2017-10-12T05:56:52.873Z,13.65
2017-10-12T05:57:52.878Z,13.58
2017-10-12T05:58:52.965Z,13.65
2017-10-12T05:59:52.500Z,13.7
2017-10-12T06:00:52.817Z,13.74
2017-10-12T06:01:52.809Z,13.77
2017-10-12T06:02:52.450Z,13.74
2017-10-12T06:03:52.771Z,13.65
2017-10-12T06:04:52.426Z,13.76
2017-10-12T06:05:52.084Z,13.65
2017-10-12T06:06:52.064Z,13.71
2017-10-12T06:07:52.707Z,13.73
2017-10-12T06:08:52.025Z,13.67
2017-10-12T06:09:52.012Z,13.63
2017-10-12T06:10:52.673Z,13.69
2017-10-12T06:11:52.653Z,13.71
2017-10-12T06:12:52.301Z,13.67
2017-10-12T06:13:52.283Z,13.63
2017-10-12T06:14:51.936Z,13.73
2017-10-12T06:15:51.921Z,13.67
2017-10-12T06:16:51.907Z,13.63
2017-10-12T06:17:52.564Z,13.61
2017-10-12T06:18:52.541Z,13.63
2017-10-12T06:19:52.533Z,13.55
2017-10-12T06:20:51.852Z,13.58
2017-10-12T06:21:52.707Z,13.61
2017-10-12T06:22:52.160Z,13.54
2017-10-12T06:23:52.181Z,13.59
2017-10-12T06:24:52.126Z,13.61
2017-10-12T06:25:52.439Z,13.61
2017-10-12T06:26:51.756Z,13.65
2017-10-12T06:27:51.739Z,13.71
2017-10-12T06:28:51.728Z,13.67
2017-10-12T06:29:52.386Z,13.62
2017-10-12T06:30:52.031Z,13.56
2017-10-12T06:31:52.013Z,13.63
2017-10-12T06:32:52.334Z,13.7
2017-10-12T06:33:52.315Z,13.63
2017-10-12T06:34:51.967Z,13.52
2017-10-12T06:35:51.957Z,13.69
2017-10-12T06:36:52.269Z,13.59
2017-10-12T06:37:52.265Z,13.58
2017-10-12T06:38:51.908Z,13.61
2017-10-12T06:39:51.894Z,13.59
2017-10-12T06:40:51.878Z,13.65
2017-10-12T06:41:51.866Z,13.63
2017-10-12T06:42:51.518Z,13.61
2017-10-12T06:43:51.840Z,13.65
2017-10-12T06:44:51.490Z,13.61
2017-10-12T06:45:52.145Z,13.59
2017-10-12T06:46:52.128Z,13.58
2017-10-12T06:47:51.776Z,13.65
2017-10-12T06:48:52.104Z,13.59
2017-10-12T06:49:52.072Z,13.61
2017-10-12T06:50:51.731Z,13.65
2017-10-12T06:51:51.720Z,13.69
2017-10-12T06:52:52.043Z,13.62
2017-10-12T06:53:51.685Z,13.65
2017-10-12T06:54:51.349Z,13.67
2017-10-12T06:55:51.324Z,13.73
2017-10-12T06:56:51.639Z,13.79
2017-10-12T06:57:51.966Z,13.77
2017-10-12T06:58:51.279Z,13.83
2017-10-12T06:59:51.595Z,13.74
2017-10-12T07:00:51.914Z,13.87
2017-10-12T07:01:51.899Z,13.79
2017-10-12T07:02:51.555Z,13.77
2017-10-12T07:03:51.537Z,13.79
2017-10-12T07:04:51.522Z,13.8
2017-10-12T07:05:51.509Z,13.79
2017-10-12T07:06:51.490Z,13.84
2017-10-12T07:07:51.480Z,13.79
2017-10-12T07:08:51.467Z,13.83
2017-10-12T07:09:51.779Z,13.84
2017-10-12T07:10:51.768Z,13.83
2017-10-12T07:11:51.082Z,13.81
2017-10-12T07:12:51.399Z,13.94
2017-10-12T07:13:51.737Z,13.8
2017-10-12T07:14:51.373Z,13.87
2017-10-12T07:15:51.385Z,13.8
2017-10-12T07:16:51.011Z,13.81
2017-10-12T07:17:51.330Z,13.81
2017-10-12T07:18:51.320Z,13.8
2017-10-12T07:19:51.303Z,13.81
2017-10-12T07:20:50.951Z,13.87
2017-10-12T07:21:51.271Z,13.87
2017-10-12T07:22:50.921Z,13.92
2017-10-12T07:23:51.244Z,13.92
2017-10-12T07:24:51.557Z,13.96
2017-10-12T07:25:51.211Z,13.94
2017-10-12T07:26:51.195Z,13.99
2017-10-12T07:27:51.188Z,13.99
2017-10-12T07:28:51.500Z,13.96
2017-10-12T07:29:51.492Z,13.94
2017-10-12T07:30:51.148Z,14.04
2017-10-12T07:31:51.125Z,14.07
2017-10-12T07:32:50.775Z,14.12
2017-10-12T07:33:50.772Z,14.07
2017-10-12T07:34:51.092Z,14.13
2017-10-12T07:35:51.061Z,14.13
2017-10-12T07:36:51.387Z,14.19
2017-10-12T07:37:51.367Z,14.17
2017-10-12T07:38:51.028Z,14.14
2017-10-12T07:39:51.020Z,14.24
2017-10-12T07:40:51.330Z,14.29
2017-10-12T07:41:50.985Z,14.28
2017-10-12T07:42:51.008Z,14.19
2017-10-12T07:43:50.952Z,14.25
2017-10-12T07:44:50.944Z,14.32
2017-10-12T07:45:51.262Z,14.28
2017-10-12T07:46:50.909Z,14.34
2017-10-12T07:47:50.894Z,14.39
2017-10-12T07:48:50.888Z,14.32
2017-10-12T07:49:50.874Z,14.35
2017-10-12T07:50:51.185Z,14.37
2017-10-12T07:51:51.179Z,14.35
2017-10-12T07:52:50.491Z,14.35
2017-10-12T07:53:51.148Z,14.32
2017-10-12T07:54:50.798Z,14.37
2017-10-12T07:55:51.116Z,14.39
2017-10-12T07:56:50.773Z,14.32
2017-10-12T07:57:50.748Z,14.35
2017-10-12T07:58:51.076Z,14.37
2017-10-12T07:59:51.058Z,14.38
2017-10-12T08:00:51.046Z,14.38
2017-10-12T08:01:51.032Z,14.44
2017-10-12T08:02:50.682Z,14.47
2017-10-12T08:03:50.666Z,14.42
2017-10-12T08:04:50.320Z,14.5
2017-10-12T08:05:50.636Z,14.5
2017-10-12T08:06:50.965Z,14.5
2017-10-12T08:07:50.965Z,14.56
2017-10-12T08:08:50.613Z,14.56
2017-10-12T08:09:50.593Z,14.57
2017-10-12T08:10:50.903Z,14.57
2017-10-12T08:11:50.562Z,14.56
2017-10-12T08:12:50.886Z,14.57
2017-10-12T08:13:50.862Z,14.54
2017-10-12T08:14:50.515Z,14.54
2017-10-12T08:15:50.836Z,14.56
2017-10-12T08:16:50.491Z,14.68
2017-10-12T08:17:50.812Z,14.65
2017-10-12T08:18:50.458Z,14.69
2017-10-12T08:19:50.457Z,14.64
2017-10-12T08:20:50.438Z,14.75
2017-10-12T08:21:50.973Z,14.72
2017-10-12T08:22:50.745Z,14.8
2017-10-12T08:23:50.392Z,14.72
2017-10-12T08:24:50.488Z,14.83
2017-10-12T08:25:50.707Z,14.86
2017-10-12T08:26:50.696Z,14.8
2017-10-12T08:27:50.340Z,14.83
2017-10-12T08:28:50.658Z,14.87
2017-10-12T08:29:49.981Z,14.87
2017-10-12T08:30:50.294Z,14.9
2017-10-12T08:31:49.948Z,14.86
2017-10-12T08:32:49.931Z,14.88
2017-10-12T08:33:49.923Z,14.86
2017-10-12T08:34:50.240Z,14.9
2017-10-12T08:35:49.895Z,14.88
2017-10-12T08:36:50.545Z,14.88
2017-10-12T08:37:49.867Z,14.88
2017-10-12T08:38:49.854Z,14.84
2017-10-12T08:39:50.174Z,14.83
2017-10-12T08:40:49.826Z,14.9
2017-10-12T08:41:50.146Z,14.78
2017-10-12T08:42:50.134Z,14.8
2017-10-12T08:43:50.117Z,14.74
2017-10-12T08:44:50.448Z,14.74
2017-10-12T08:45:50.096Z,14.78
2017-10-12T08:46:49.743Z,14.72
2017-10-12T08:47:50.069Z,14.93
2017-10-12T08:48:50.054Z,14.83
2017-10-12T08:49:49.703Z,14.81
2017-10-12T08:50:50.362Z,14.95
2017-10-12T08:51:50.025Z,14.95
2017-10-12T08:52:50.001Z,14.99
2017-10-12T08:53:50.323Z,14.98
2017-10-12T08:54:50.303Z,14.95
2017-10-12T08:55:49.627Z,14.91
2017-10-12T08:56:50.284Z,14.99
2017-10-12T08:57:50.267Z,15.03
2017-10-12T08:58:49.920Z,14.95
2017-10-12T08:59:50.235Z,14.98
2017-10-12T09:00:49.895Z,15.02
2017-10-12T09:01:49.883Z,15.02
2017-10-12T09:02:50.197Z,15.13
2017-10-12T09:03:49.849Z,15.12
2017-10-12T09:04:49.855Z,15.17
2017-10-12T09:05:49.831Z,15.24
2017-10-12T09:06:49.482Z,15.27
2017-10-12T09:07:50.133Z,15.26
2017-10-12T09:08:49.454Z,15.28
2017-10-12T09:09:50.120Z,15.35
2017-10-12T09:10:49.762Z,15.31
2017-10-12T09:11:49.755Z,15.3
2017-10-12T09:12:49.746Z,15.36
2017-10-12T09:13:50.059Z,15.33
2017-10-12T09:14:49.717Z,15.31
2017-10-12T09:15:50.027Z,15.35
2017-10-12T09:16:49.685Z,15.3
2017-10-12T09:17:49.670Z,15.24
2017-10-12T09:18:49.658Z,15.3
2017-10-12T09:19:49.972Z,15.27
2017-10-12T09:20:49.657Z,15.13
2017-10-12T09:21:49.618Z,15.28
2017-10-12T09:22:49.941Z,15.26
2017-10-12T09:23:49.589Z,15.19
2017-10-12T09:24:49.910Z,15.33
2017-10-12T09:25:49.910Z,15.41
2017-10-12T09:26:49.552Z,15.54
2017-10-12T09:27:49.209Z,15.56
2017-10-12T09:28:49.862Z,15.64
2017-10-12T09:29:49.513Z,15.61
2017-10-12T09:30:49.169Z,15.64
2017-10-12T09:31:49.491Z,15.84
2017-10-12T09:32:49.472Z,15.75
2017-10-12T09:33:49.470Z,15.84
2017-10-12T09:34:49.462Z,15.85
2017-10-12T09:35:49.442Z,15.89
2017-10-12T09:36:49.764Z,15.94
2017-10-12T09:37:49.753Z,16
2017-10-12T09:38:49.409Z,15.94
2017-10-12T09:39:49.394Z,15.93
2017-10-12T09:40:49.377Z,16.01
2017-10-12T09:41:49.367Z,15.96
2017-10-12T09:42:49.706Z,16
2017-10-12T09:43:49.340Z,15.94
2017-10-12T09:44:48.996Z,15.92
2017-10-12T09:45:48.983Z,15.88
2017-10-12T09:46:49.659Z,15.86
2017-10-12T09:47:49.289Z,15.84
2017-10-12T09:48:49.616Z,15.86
2017-10-12T09:49:49.271Z,15.75
2017-10-12T09:50:48.922Z,15.67
2017-10-12T09:51:49.245Z,15.63
2017-10-12T09:52:49.229Z,15.63
2017-10-12T09:53:49.217Z,15.6
2017-10-12T09:54:49.209Z,15.63
2017-10-12T09:55:49.526Z,15.64
2017-10-12T09:56:49.180Z,15.7
2017-10-12T09:57:49.169Z,15.61
2017-10-12T09:58:49.492Z,15.72
2017-10-12T09:59:48.811Z,15.64
2017-10-12T10:00:49.144Z,15.81
2017-10-12T10:01:49.459Z,15.85
2017-10-12T10:02:49.441Z,15.89
2017-10-12T10:03:49.105Z,15.96
2017-10-12T10:04:49.417Z,16.04
2017-10-12T10:05:49.068Z,16.11
2017-10-12T10:06:49.057Z,16.14
2017-10-12T10:07:49.376Z,16.26
2017-10-12T10:08:49.030Z,16.31
2017-10-12T10:09:48.686Z,16.27
2017-10-12T10:10:49.358Z,16.31
2017-10-12T10:11:48.666Z,16.26
2017-10-12T10:12:48.987Z,16.18
2017-10-12T10:13:48.643Z,16.18
2017-10-12T10:14:49.304Z,16.14
2017-10-12T10:15:48.949Z,16.2
2017-10-12T10:16:48.936Z,16.09
2017-10-12T10:17:49.274Z,16.11
2017-10-12T10:18:48.914Z,16.12
2017-10-12T10:19:48.899Z,16.06
2017-10-12T10:20:48.889Z,16.01
2017-10-12T10:21:49.098Z,16.04
2017-10-12T10:22:48.873Z,16.07
2017-10-12T10:23:48.857Z,15.99
2017-10-12T10:24:48.505Z,16.09
2017-10-12T10:25:48.504Z,16.06
2017-10-12T10:26:48.821Z,16.09
2017-10-12T10:27:48.481Z,16.18
2017-10-12T10:28:48.803Z,16.26
2017-10-12T10:29:48.780Z,16.3
2017-10-12T10:30:48.774Z,16.3
2017-10-12T10:31:48.759Z,16.3
2017-10-12T10:32:48.412Z,16.31
2017-10-12T10:33:48.740Z,16.31
2017-10-12T10:34:48.784Z,16.16
2017-10-12T10:35:49.064Z,16.14
2017-10-12T10:36:48.726Z,16.12
2017-10-12T10:37:48.697Z,16.16
2017-10-12T10:38:48.345Z,16.22
2017-10-12T10:39:48.664Z,16.2
2017-10-12T10:40:48.658Z,16.26
2017-10-12T10:41:48.311Z,16.38
2017-10-12T10:42:48.638Z,16.48
2017-10-12T10:43:48.958Z,16.52
2017-10-12T10:44:48.958Z,16.49
2017-10-12T10:45:48.595Z,16.41
2017-10-12T10:46:48.586Z,16.35
2017-10-12T10:47:48.568Z,16.34
2017-10-12T10:48:48.896Z,16.38
2017-10-12T10:49:48.892Z,16.33
2017-10-12T10:50:48.544Z,16.4
2017-10-12T10:51:48.531Z,16.26
2017-10-12T10:52:48.844Z,16.34
2017-10-12T10:53:48.170Z,16.38
2017-10-12T10:54:48.494Z,16.45
2017-10-12T10:55:48.143Z,16.37
2017-10-12T10:56:48.806Z,16.3
2017-10-12T10:57:48.457Z,16.26
2017-10-12T10:58:48.446Z,16.35
2017-10-12T10:59:48.432Z,16.37
2017-10-12T11:00:48.428Z,16.33
2017-10-12T11:01:48.413Z,16.37
2017-10-12T11:02:48.736Z,16.38
2017-10-12T11:03:48.391Z,16.41
2017-10-12T11:04:48.711Z,16.49
2017-10-12T11:05:48.365Z,16.48
2017-10-12T11:06:48.365Z,16.45
2017-10-12T11:07:48.011Z,16.5
2017-10-12T11:08:48.007Z,16.56
2017-10-12T11:09:48.331Z,16.49
2017-10-12T11:10:47.978Z,16.48
2017-10-12T11:11:48.298Z,16.4
2017-10-12T11:12:48.625Z,16.33
2017-10-12T11:13:48.276Z,16.38
2017-10-12T11:14:48.595Z,16.37
2017-10-12T11:15:48.260Z,16.37
2017-10-12T11:16:48.576Z,16.5
2017-10-12T11:17:48.566Z,16.6
2017-10-12T11:18:48.219Z,16.67
2017-10-12T11:19:48.562Z,16.74
2017-10-12T11:20:48.196Z,16.73
2017-10-12T11:21:48.190Z,16.7
2017-10-12T11:22:47.840Z,16.74
2017-10-12T11:23:48.162Z,16.71
2017-10-12T11:24:48.163Z,16.77
2017-10-12T11:25:48.485Z,16.77
2017-10-12T11:26:48.133Z,16.81
2017-10-12T11:27:48.118Z,16.81
2017-10-12T11:28:48.106Z,16.68
2017-10-12T11:29:48.097Z,16.83
2017-10-12T11:30:48.086Z,16.83
2017-10-12T11:31:48.071Z,16.74
2017-10-12T11:32:48.409Z,16.85
2017-10-12T11:33:48.390Z,16.96
2017-10-12T11:34:48.383Z,16.98
2017-10-12T11:35:48.365Z,16.99
2017-10-12T11:36:48.017Z,16.98
2017-10-12T11:37:48.013Z,17.08
2017-10-12T11:38:48.001Z,17.07
2017-10-12T11:39:48.333Z,16.99
2017-10-12T11:40:47.646Z,17.03
2017-10-12T11:41:47.966Z,17.15
2017-10-12T11:42:48.294Z,17.2
2017-10-12T11:43:48.290Z,17.29
2017-10-12T11:44:47.939Z,17.28
2017-10-12T11:45:47.935Z,17.4
2017-10-12T11:46:48.260Z,17.4
2017-10-12T11:47:48.233Z,17.51
2017-10-12T11:48:47.898Z,17.54
2017-10-12T11:49:48.224Z,17.54
2017-10-12T11:50:47.887Z,17.62
2017-10-12T11:51:48.202Z,17.64
2017-10-12T11:52:47.865Z,17.59
2017-10-12T11:53:48.180Z,17.62
2017-10-12T11:54:47.507Z,17.38
2017-10-12T11:55:48.174Z,17.36
2017-10-12T11:56:47.826Z,17.33
2017-10-12T11:57:47.824Z,17.18
2017-10-12T11:58:47.801Z,17.11
2017-10-12T11:59:47.798Z,17.08
2017-10-12T12:00:48.130Z,17.03
2017-10-12T12:01:47.437Z,16.93
2017-10-12T12:02:47.765Z,16.96
2017-10-12T12:03:47.758Z,17
2017-10-12T12:04:47.412Z,16.9
2017-10-12T12:05:47.402Z,16.95
2017-10-12T12:06:48.073Z,17.03
2017-10-12T12:07:47.720Z,16.89
2017-10-12T12:08:48.041Z,16.89
2017-10-12T12:09:47.361Z,16.86
2017-10-12T12:10:48.019Z,16.77
2017-10-12T12:11:47.676Z,16.78
2017-10-12T12:12:48.003Z,16.77
2017-10-12T12:13:47.322Z,16.74
2017-10-12T12:14:47.645Z,16.75
2017-10-12T12:15:47.971Z,16.56
2017-10-12T12:16:47.619Z,16.59
2017-10-12T12:17:47.611Z,16.53
2017-10-12T12:18:47.939Z,16.56
2017-10-12T12:19:47.929Z,16.55
2017-10-12T12:20:47.578Z,16.45
2017-10-12T12:21:47.904Z,16.41
2017-10-12T12:22:47.557Z,16.49
2017-10-12T12:23:47.886Z,16.52
2017-10-12T12:24:47.536Z,16.59
2017-10-12T12:25:47.193Z,16.58
2017-10-12T12:26:47.850Z,16.6
2017-10-12T12:27:47.509Z,16.59
2017-10-12T12:28:47.492Z,16.65
2017-10-12T12:29:47.821Z,16.6
2017-10-12T12:30:47.480Z,16.6
2017-10-12T12:31:47.799Z,16.52
2017-10-12T12:32:47.790Z,16.49
2017-10-12T12:33:47.772Z,16.41
2017-10-12T12:34:47.098Z,16.53
2017-10-12T12:35:47.424Z,16.52
2017-10-12T12:36:47.740Z,16.45
2017-10-12T12:37:47.398Z,16.49
2017-10-12T12:38:47.381Z,16.55
2017-10-12T12:39:47.707Z,16.56
2017-10-12T12:40:47.028Z,16.68
2017-10-12T12:41:47.016Z,16.75
2017-10-12T12:42:47.001Z,16.74
2017-10-12T12:43:47.669Z,16.78
2017-10-12T12:44:46.985Z,16.74
2017-10-12T12:45:47.643Z,16.78
2017-10-12T12:46:46.960Z,16.75
2017-10-12T12:47:47.282Z,16.75
2017-10-12T12:48:47.604Z,16.8
2017-10-12T12:49:47.261Z,16.77
2017-10-12T12:50:47.252Z,16.75
2017-10-12T12:51:47.241Z,16.71
2017-10-12T12:52:47.572Z,16.78
2017-10-12T12:53:47.220Z,16.74
2017-10-12T12:54:47.203Z,16.71
2017-10-12T12:55:47.201Z,16.75